sensor_id;sensor_type;location;lat;lon;timestamp;P1;durP1;ratioP1;P2;durP2;ratioP2
3712;SDS011;1872;51.406;6.856;2023-10-08T00:00:47;8.53;;;5.70;;
3712;SDS011;1872;51.406;6.856;2023-10-08T00:03:19;8.60;;;6.13;;
3712;SDS011;1872;51.406;6.856;2023-10-08T00:05:47;8.70;;;5.70;;
3712;SDS011;1872;51.406;6.856;2023-10-08T00:08:16;7.63;;;6.23;;
3712;SDS011;1872;51.406;6.856;2023-10-08T00:10:42;9.10;;;7.30;;
3712;SDS011;1872;51.406;6.856;2023-10-08T00:13:12;9.20;;;5.60;;
3712;SDS011;1872;51.406;6.856;2023-10-08T00:15:40;5.73;;;4.83;;
3712;SDS011;1872;51.406;6.856;2023-10-08T00:18:15;5.90;;;4.87;;
3712;SDS011;1872;51.406;6.856;2023-10-08T00:20:41;6.20;;;5.50;;
3712;SDS011;1872;51.406;6.856;2023-10-08T00:23:32;6.40;;;4.83;;
3712;SDS011;1872;51.406;6.856;2023-10-08T00:26:00;10.23;;;6.20;;
3712;SDS011;1872;51.406;6.856;2023-10-08T00:28:29;7.10;;;5.73;;
3712;SDS011;1872;51.406;6.856;2023-10-08T00:30:58;9.63;;;5.97;;
3712;SDS011;1872;51.406;6.856;2023-10-08T00:33:37;7.10;;;5.90;;
3712;SDS011;1872;51.406;6.856;2023-10-08T00:36:04;11.07;;;6.33;;
3712;SDS011;1872;51.406;6.856;2023-10-08T00:38:48;10.63;;;6.30;;
3712;SDS011;1872;51.406;6.856;2023-10-08T00:41:19;8.03;;;6.10;;
3712;SDS011;1872;51.406;6.856;2023-10-08T00:43:48;9.60;;;6.97;;
3712;SDS011;1872;51.406;6.856;2023-10-08T00:46:14;11.33;;;6.80;;
3712;SDS011;1872;51.406;6.856;2023-10-08T00:48:49;10.30;;;7.43;;
3712;SDS011;1872;51.406;6.856;2023-10-08T00:51:19;8.77;;;6.10;;
3712;SDS011;1872;51.406;6.856;2023-10-08T00:53:56;9.67;;;7.93;;
3712;SDS011;1872;51.406;6.856;2023-10-08T00:56:31;10.00;;;6.80;;
3712;SDS011;1872;51.406;6.856;2023-10-08T00:59:17;12.33;;;6.60;;
3712;SDS011;1872;51.406;6.856;2023-10-08T01:01:46;7.10;;;6.07;;
3712;SDS011;1872;51.406;6.856;2023-10-08T01:04:24;7.83;;;6.47;;
3712;SDS011;1872;51.406;6.856;2023-10-08T01:06:58;11.63;;;6.93;;
3712;SDS011;1872;51.406;6.856;2023-10-08T01:09:26;9.77;;;6.73;;
3712;SDS011;1872;51.406;6.856;2023-10-08T01:12:16;9.03;;;6.43;;
3712;SDS011;1872;51.406;6.856;2023-10-08T01:14:45;9.00;;;7.00;;
3712;SDS011;1872;51.406;6.856;2023-10-08T01:17:12;7.80;;;5.90;;
3712;SDS011;1872;51.406;6.856;2023-10-08T01:19:47;11.90;;;6.80;;
3712;SDS011;1872;51.406;6.856;2023-10-08T01:22:19;9.23;;;6.00;;
3712;SDS011;1872;51.406;6.856;2023-10-08T01:24:47;8.77;;;5.50;;
3712;SDS011;1872;51.406;6.856;2023-10-08T01:27:16;11.13;;;6.20;;
3712;SDS011;1872;51.406;6.856;2023-10-08T01:29:47;10.13;;;5.40;;
3712;SDS011;1872;51.406;6.856;2023-10-08T01:32:15;10.60;;;5.97;;
3712;SDS011;1872;51.406;6.856;2023-10-08T01:34:44;7.00;;;5.63;;
3712;SDS011;1872;51.406;6.856;2023-10-08T01:37:14;6.80;;;5.53;;
3712;SDS011;1872;51.406;6.856;2023-10-08T01:39:45;6.40;;;5.50;;
3712;SDS011;1872;51.406;6.856;2023-10-08T01:42:15;7.60;;;6.10;;
3712;SDS011;1872;51.406;6.856;2023-10-08T01:44:46;6.00;;;5.40;;
3712;SDS011;1872;51.406;6.856;2023-10-08T01:47:14;12.03;;;5.50;;
3712;SDS011;1872;51.406;6.856;2023-10-08T01:49:41;7.53;;;5.30;;
3712;SDS011;1872;51.406;6.856;2023-10-08T01:52:09;6.57;;;5.47;;
3712;SDS011;1872;51.406;6.856;2023-10-08T01:54:42;6.87;;;5.10;;
3712;SDS011;1872;51.406;6.856;2023-10-08T01:57:09;7.10;;;5.33;;
3712;SDS011;1872;51.406;6.856;2023-10-08T01:59:35;7.50;;;5.67;;
3712;SDS011;1872;51.406;6.856;2023-10-08T02:02:03;7.80;;;5.30;;
3712;SDS011;1872;51.406;6.856;2023-10-08T02:04:31;8.67;;;5.97;;
3712;SDS011;1872;51.406;6.856;2023-10-08T02:06:58;10.80;;;6.00;;
3712;SDS011;1872;51.406;6.856;2023-10-08T02:09:24;9.97;;;5.97;;
3712;SDS011;1872;51.406;6.856;2023-10-08T02:11:51;8.13;;;5.40;;
3712;SDS011;1872;51.406;6.856;2023-10-08T02:14:21;7.77;;;5.53;;
3712;SDS011;1872;51.406;6.856;2023-10-08T02:16:48;10.33;;;6.00;;
3712;SDS011;1872;51.406;6.856;2023-10-08T02:19:14;6.67;;;5.27;;
3712;SDS011;1872;51.406;6.856;2023-10-08T02:21:43;7.87;;;5.50;;
3712;SDS011;1872;51.406;6.856;2023-10-08T02:24:11;7.43;;;5.37;;
3712;SDS011;1872;51.406;6.856;2023-10-08T02:26:37;7.43;;;5.60;;
3712;SDS011;1872;51.406;6.856;2023-10-08T02:29:03;7.60;;;5.93;;
3712;SDS011;1872;51.406;6.856;2023-10-08T02:31:44;8.50;;;5.87;;
3712;SDS011;1872;51.406;6.856;2023-10-08T02:34:10;6.83;;;5.10;;
3712;SDS011;1872;51.406;6.856;2023-10-08T02:36:37;6.07;;;5.13;;
3712;SDS011;1872;51.406;6.856;2023-10-08T02:39:05;8.00;;;5.83;;
3712;SDS011;1872;51.406;6.856;2023-10-08T02:41:39;7.57;;;6.10;;
3712;SDS011;1872;51.406;6.856;2023-10-08T02:44:06;8.77;;;6.83;;
3712;SDS011;1872;51.406;6.856;2023-10-08T02:46:37;11.27;;;5.77;;
3712;SDS011;1872;51.406;6.856;2023-10-08T02:49:20;7.70;;;6.10;;
3712;SDS011;1872;51.406;6.856;2023-10-08T02:51:53;12.10;;;6.97;;
3712;SDS011;1872;51.406;6.856;2023-10-08T02:54:20;11.10;;;5.70;;
3712;SDS011;1872;51.406;6.856;2023-10-08T02:56:52;11.77;;;7.40;;
3712;SDS011;1872;51.406;6.856;2023-10-08T02:59:23;9.80;;;6.63;;
3712;SDS011;1872;51.406;6.856;2023-10-08T03:01:49;10.13;;;6.93;;
3712;SDS011;1872;51.406;6.856;2023-10-08T03:04:17;10.57;;;6.93;;
3712;SDS011;1872;51.406;6.856;2023-10-08T03:06:46;13.20;;;7.37;;
3712;SDS011;1872;51.406;6.856;2023-10-08T03:09:16;9.30;;;6.00;;
3712;SDS011;1872;51.406;6.856;2023-10-08T03:11:46;10.07;;;6.40;;
3712;SDS011;1872;51.406;6.856;2023-10-08T03:14:13;9.50;;;7.00;;
3712;SDS011;1872;51.406;6.856;2023-10-08T03:16:47;8.30;;;6.20;;
3712;SDS011;1872;51.406;6.856;2023-10-08T03:19:13;8.80;;;6.40;;
3712;SDS011;1872;51.406;6.856;2023-10-08T03:21:39;7.23;;;5.30;;
3712;SDS011;1872;51.406;6.856;2023-10-08T03:24:04;9.70;;;6.47;;
3712;SDS011;1872;51.406;6.856;2023-10-08T03:26:54;8.17;;;5.80;;
3712;SDS011;1872;51.406;6.856;2023-10-08T03:29:37;7.23;;;5.70;;
3712;SDS011;1872;51.406;6.856;2023-10-08T03:32:10;7.60;;;5.47;;
3712;SDS011;1872;51.406;6.856;2023-10-08T03:34:46;8.57;;;5.60;;
3712;SDS011;1872;51.406;6.856;2023-10-08T03:37:14;7.87;;;5.67;;
3712;SDS011;1872;51.406;6.856;2023-10-08T03:39:46;9.80;;;5.43;;
3712;SDS011;1872;51.406;6.856;2023-10-08T03:42:22;7.37;;;5.80;;
3712;SDS011;1872;51.406;6.856;2023-10-08T03:44:52;7.33;;;5.50;;
3712;SDS011;1872;51.406;6.856;2023-10-08T03:47:24;8.10;;;6.73;;
3712;SDS011;1872;51.406;6.856;2023-10-08T03:49:51;9.83;;;6.90;;
3712;SDS011;1872;51.406;6.856;2023-10-08T03:52:19;8.40;;;6.70;;
3712;SDS011;1872;51.406;6.856;2023-10-08T03:54:50;10.60;;;5.60;;
3712;SDS011;1872;51.406;6.856;2023-10-08T03:57:37;9.13;;;6.30;;
3712;SDS011;1872;51.406;6.856;2023-10-08T04:00:12;8.30;;;6.23;;
3712;SDS011;1872;51.406;6.856;2023-10-08T04:02:53;6.07;;;5.30;;
3712;SDS011;1872;51.406;6.856;2023-10-08T04:05:23;9.33;;;5.43;;
3712;SDS011;1872;51.406;6.856;2023-10-08T04:07:57;11.57;;;5.83;;
3712;SDS011;1872;51.406;6.856;2023-10-08T04:10:25;8.80;;;6.23;;
3712;SDS011;1872;51.406;6.856;2023-10-08T04:13:07;6.30;;;4.87;;
3712;SDS011;1872;51.406;6.856;2023-10-08T04:15:34;6.20;;;5.10;;
3712;SDS011;1872;51.406;6.856;2023-10-08T04:18:05;7.37;;;5.93;;
3712;SDS011;1872;51.406;6.856;2023-10-08T04:20:34;9.20;;;6.20;;
3712;SDS011;1872;51.406;6.856;2023-10-08T04:23:20;7.70;;;4.97;;
3712;SDS011;1872;51.406;6.856;2023-10-08T04:25:48;5.40;;;4.90;;
3712;SDS011;1872;51.406;6.856;2023-10-08T04:28:19;8.07;;;5.70;;
3712;SDS011;1872;51.406;6.856;2023-10-08T04:30:46;7.10;;;5.37;;
3712;SDS011;1872;51.406;6.856;2023-10-08T04:33:15;8.67;;;6.03;;
3712;SDS011;1872;51.406;6.856;2023-10-08T04:35:44;6.97;;;5.77;;
3712;SDS011;1872;51.406;6.856;2023-10-08T04:38:17;8.43;;;6.23;;
3712;SDS011;1872;51.406;6.856;2023-10-08T04:40:46;10.10;;;7.43;;
3712;SDS011;1872;51.406;6.856;2023-10-08T04:43:17;6.43;;;5.70;;
3712;SDS011;1872;51.406;6.856;2023-10-08T04:45:55;11.20;;;6.60;;
3712;SDS011;1872;51.406;6.856;2023-10-08T04:48:22;8.37;;;5.73;;
3712;SDS011;1872;51.406;6.856;2023-10-08T04:50:49;7.30;;;5.67;;
3712;SDS011;1872;51.406;6.856;2023-10-08T04:53:24;7.77;;;6.00;;
3712;SDS011;1872;51.406;6.856;2023-10-08T04:55:57;11.70;;;6.43;;
3712;SDS011;1872;51.406;6.856;2023-10-08T04:58:27;9.90;;;6.10;;
3712;SDS011;1872;51.406;6.856;2023-10-08T05:00:58;7.23;;;5.73;;
3712;SDS011;1872;51.406;6.856;2023-10-08T05:03:42;9.30;;;5.90;;
3712;SDS011;1872;51.406;6.856;2023-10-08T05:09:02;8.00;;;6.17;;
3712;SDS011;1872;51.406;6.856;2023-10-08T05:11:43;7.47;;;5.50;;
3712;SDS011;1872;51.406;6.856;2023-10-08T05:14:16;9.10;;;6.57;;
3712;SDS011;1872;51.406;6.856;2023-10-08T05:16:57;9.50;;;6.70;;
3712;SDS011;1872;51.406;6.856;2023-10-08T05:19:35;9.07;;;5.70;;
3712;SDS011;1872;51.406;6.856;2023-10-08T05:22:13;6.17;;;5.27;;
3712;SDS011;1872;51.406;6.856;2023-10-08T05:24:47;14.73;;;6.83;;
3712;SDS011;1872;51.406;6.856;2023-10-08T05:27:32;9.83;;;5.80;;
3712;SDS011;1872;51.406;6.856;2023-10-08T05:30:18;6.90;;;5.40;;
3712;SDS011;1872;51.406;6.856;2023-10-08T05:32:56;9.03;;;5.33;;
3712;SDS011;1872;51.406;6.856;2023-10-08T05:35:38;7.17;;;5.50;;
3712;SDS011;1872;51.406;6.856;2023-10-08T05:38:05;10.17;;;5.60;;
3712;SDS011;1872;51.406;6.856;2023-10-08T05:41:09;9.33;;;5.70;;
3712;SDS011;1872;51.406;6.856;2023-10-08T05:43:53;7.43;;;5.60;;
3712;SDS011;1872;51.406;6.856;2023-10-08T05:46:38;8.17;;;5.90;;
3712;SDS011;1872;51.406;6.856;2023-10-08T05:49:22;8.93;;;6.20;;
3712;SDS011;1872;51.406;6.856;2023-10-08T05:51:56;8.50;;;5.67;;
3712;SDS011;1872;51.406;6.856;2023-10-08T05:54:28;9.73;;;5.93;;
3712;SDS011;1872;51.406;6.856;2023-10-08T05:57:00;8.07;;;5.80;;
3712;SDS011;1872;51.406;6.856;2023-10-08T05:59:40;8.90;;;5.23;;
3712;SDS011;1872;51.406;6.856;2023-10-08T06:02:28;9.23;;;6.40;;
3712;SDS011;1872;51.406;6.856;2023-10-08T06:04:57;11.00;;;6.33;;
3712;SDS011;1872;51.406;6.856;2023-10-08T06:07:47;9.87;;;6.70;;
3712;SDS011;1872;51.406;6.856;2023-10-08T06:10:19;7.33;;;6.10;;
3712;SDS011;1872;51.406;6.856;2023-10-08T06:12:55;6.80;;;5.73;;
3712;SDS011;1872;51.406;6.856;2023-10-08T06:15:27;10.70;;;5.53;;
3712;SDS011;1872;51.406;6.856;2023-10-08T06:18:10;10.37;;;6.10;;
3712;SDS011;1872;51.406;6.856;2023-10-08T06:20:36;7.27;;;5.70;;
3712;SDS011;1872;51.406;6.856;2023-10-08T06:23:04;9.90;;;6.10;;
3712;SDS011;1872;51.406;6.856;2023-10-08T06:25:32;7.20;;;5.40;;
3712;SDS011;1872;51.406;6.856;2023-10-08T06:27:58;8.80;;;5.57;;
3712;SDS011;1872;51.406;6.856;2023-10-08T06:30:24;9.90;;;6.23;;
3712;SDS011;1872;51.406;6.856;2023-10-08T06:32:54;7.83;;;6.10;;
3712;SDS011;1872;51.406;6.856;2023-10-08T06:35:21;10.00;;;6.00;;
3712;SDS011;1872;51.406;6.856;2023-10-08T06:37:50;12.40;;;6.70;;
3712;SDS011;1872;51.406;6.856;2023-10-08T06:40:20;6.10;;;4.83;;
3712;SDS011;1872;51.406;6.856;2023-10-08T06:43:09;8.97;;;6.07;;
3712;SDS011;1872;51.406;6.856;2023-10-08T06:45:42;11.20;;;6.70;;
3712;SDS011;1872;51.406;6.856;2023-10-08T06:48:13;10.23;;;5.60;;
3712;SDS011;1872;51.406;6.856;2023-10-08T06:50:49;7.80;;;6.53;;
3712;SDS011;1872;51.406;6.856;2023-10-08T06:53:17;6.70;;;5.67;;
3712;SDS011;1872;51.406;6.856;2023-10-08T06:55:46;9.33;;;5.73;;
3712;SDS011;1872;51.406;6.856;2023-10-08T06:58:22;11.53;;;6.70;;
3712;SDS011;1872;51.406;6.856;2023-10-08T07:00:49;13.63;;;6.17;;
3712;SDS011;1872;51.406;6.856;2023-10-08T07:03:15;9.43;;;6.23;;
3712;SDS011;1872;51.406;6.856;2023-10-08T07:05:43;8.60;;;5.93;;
3712;SDS011;1872;51.406;6.856;2023-10-08T07:08:19;7.00;;;5.70;;
3712;SDS011;1872;51.406;6.856;2023-10-08T07:10:51;7.47;;;5.77;;
3712;SDS011;1872;51.406;6.856;2023-10-08T07:13:18;7.70;;;5.60;;
3712;SDS011;1872;51.406;6.856;2023-10-08T07:15:47;10.73;;;6.13;;
3712;SDS011;1872;51.406;6.856;2023-10-08T07:18:14;8.63;;;6.50;;
3712;SDS011;1872;51.406;6.856;2023-10-08T07:20:44;6.33;;;5.70;;
3712;SDS011;1872;51.406;6.856;2023-10-08T07:23:10;12.40;;;6.63;;
3712;SDS011;1872;51.406;6.856;2023-10-08T07:26:02;6.90;;;5.70;;
3712;SDS011;1872;51.406;6.856;2023-10-08T07:28:43;11.97;;;6.60;;
3712;SDS011;1872;51.406;6.856;2023-10-08T07:31:18;9.70;;;6.90;;
3712;SDS011;1872;51.406;6.856;2023-10-08T07:33:49;8.97;;;5.90;;
3712;SDS011;1872;51.406;6.856;2023-10-08T07:36:27;10.20;;;6.90;;
3712;SDS011;1872;51.406;6.856;2023-10-08T07:38:56;7.73;;;6.03;;
3712;SDS011;1872;51.406;6.856;2023-10-08T07:41:22;6.93;;;5.93;;
3712;SDS011;1872;51.406;6.856;2023-10-08T07:43:48;9.37;;;6.10;;
3712;SDS011;1872;51.406;6.856;2023-10-08T07:46:23;7.77;;;5.67;;
3712;SDS011;1872;51.406;6.856;2023-10-08T07:48:53;9.13;;;6.97;;
3712;SDS011;1872;51.406;6.856;2023-10-08T07:51:20;11.53;;;7.37;;
3712;SDS011;1872;51.406;6.856;2023-10-08T07:53:49;10.60;;;7.20;;
3712;SDS011;1872;51.406;6.856;2023-10-08T07:56:23;13.67;;;7.70;;
3712;SDS011;1872;51.406;6.856;2023-10-08T07:58:50;11.30;;;7.07;;
3712;SDS011;1872;51.406;6.856;2023-10-08T08:01:16;11.17;;;7.13;;
3712;SDS011;1872;51.406;6.856;2023-10-08T08:03:42;14.13;;;8.60;;
3712;SDS011;1872;51.406;6.856;2023-10-08T08:06:10;11.77;;;8.00;;
3712;SDS011;1872;51.406;6.856;2023-10-08T08:08:36;14.57;;;9.50;;
3712;SDS011;1872;51.406;6.856;2023-10-08T08:11:03;23.50;;;11.17;;
3712;SDS011;1872;51.406;6.856;2023-10-08T08:13:37;16.80;;;9.83;;
3712;SDS011;1872;51.406;6.856;2023-10-08T08:16:11;17.93;;;11.00;;
3712;SDS011;1872;51.406;6.856;2023-10-08T08:18:46;18.00;;;10.37;;
3712;SDS011;1872;51.406;6.856;2023-10-08T08:21:17;22.90;;;11.80;;
3712;SDS011;1872;51.406;6.856;2023-10-08T08:23:45;23.17;;;12.90;;
3712;SDS011;1872;51.406;6.856;2023-10-08T08:26:21;19.80;;;11.70;;
3712;SDS011;1872;51.406;6.856;2023-10-08T08:28:58;20.27;;;12.47;;
3712;SDS011;1872;51.406;6.856;2023-10-08T08:31:27;38.40;;;12.67;;
3712;SDS011;1872;51.406;6.856;2023-10-08T08:34:00;18.47;;;13.17;;
3712;SDS011;1872;51.406;6.856;2023-10-08T08:36:27;20.90;;;12.70;;
3712;SDS011;1872;51.406;6.856;2023-10-08T08:38:54;20.80;;;13.27;;
3712;SDS011;1872;51.406;6.856;2023-10-08T08:41:20;24.57;;;11.60;;
3712;SDS011;1872;51.406;6.856;2023-10-08T08:43:48;21.07;;;12.90;;
3712;SDS011;1872;51.406;6.856;2023-10-08T08:46:21;28.63;;;14.87;;
3712;SDS011;1872;51.406;6.856;2023-10-08T08:48:52;21.40;;;13.90;;
3712;SDS011;1872;51.406;6.856;2023-10-08T08:51:20;18.87;;;13.93;;
3712;SDS011;1872;51.406;6.856;2023-10-08T08:53:48;23.93;;;15.97;;
3712;SDS011;1872;51.406;6.856;2023-10-08T08:56:14;24.03;;;14.27;;
3712;SDS011;1872;51.406;6.856;2023-10-08T08:58:41;23.67;;;14.40;;
3712;SDS011;1872;51.406;6.856;2023-10-08T09:01:09;21.47;;;14.70;;
3712;SDS011;1872;51.406;6.856;2023-10-08T09:03:39;29.60;;;16.80;;
3712;SDS011;1872;51.406;6.856;2023-10-08T09:06:05;30.63;;;17.73;;
3712;SDS011;1872;51.406;6.856;2023-10-08T09:08:37;27.97;;;15.20;;
3712;SDS011;1872;51.406;6.856;2023-10-08T09:11:06;24.93;;;14.60;;
3712;SDS011;1872;51.406;6.856;2023-10-08T09:13:33;18.27;;;12.10;;
3712;SDS011;1872;51.406;6.856;2023-10-08T09:16:07;14.70;;;11.53;;
3712;SDS011;1872;51.406;6.856;2023-10-08T09:18:36;11.67;;;10.40;;
3712;SDS011;1872;51.406;6.856;2023-10-08T09:21:09;13.43;;;10.13;;
3712;SDS011;1872;51.406;6.856;2023-10-08T09:23:39;16.80;;;10.60;;
3712;SDS011;1872;51.406;6.856;2023-10-08T09:26:09;14.10;;;10.53;;
3712;SDS011;1872;51.406;6.856;2023-10-08T09:28:36;17.03;;;10.17;;
3712;SDS011;1872;51.406;6.856;2023-10-08T09:31:04;16.83;;;9.33;;
3712;SDS011;1872;51.406;6.856;2023-10-08T09:33:31;13.63;;;8.63;;
3712;SDS011;1872;51.406;6.856;2023-10-08T09:35:58;16.60;;;10.53;;
3712;SDS011;1872;51.406;6.856;2023-10-08T09:38:29;15.60;;;9.20;;
3712;SDS011;1872;51.406;6.856;2023-10-08T09:40:56;11.60;;;8.67;;
3712;SDS011;1872;51.406;6.856;2023-10-08T09:43:23;12.77;;;9.17;;
3712;SDS011;1872;51.406;6.856;2023-10-08T09:45:53;11.90;;;9.20;;
3712;SDS011;1872;51.406;6.856;2023-10-08T09:48:30;13.90;;;8.63;;
3712;SDS011;1872;51.406;6.856;2023-10-08T09:51:02;9.27;;;8.20;;
3712;SDS011;1872;51.406;6.856;2023-10-08T09:56:29;14.90;;;10.53;;
3712;SDS011;1872;51.406;6.856;2023-10-08T09:58:56;18.87;;;11.70;;
3712;SDS011;1872;51.406;6.856;2023-10-08T10:01:22;17.47;;;11.90;;
3712;SDS011;1872;51.406;6.856;2023-10-08T10:03:50;19.37;;;14.20;;
3712;SDS011;1872;51.406;6.856;2023-10-08T10:06:17;26.03;;;15.70;;
3712;SDS011;1872;51.406;6.856;2023-10-08T10:08:43;21.80;;;15.30;;
3712;SDS011;1872;51.406;6.856;2023-10-08T10:11:10;29.77;;;17.90;;
3712;SDS011;1872;51.406;6.856;2023-10-08T10:13:43;28.60;;;17.83;;
3712;SDS011;1872;51.406;6.856;2023-10-08T10:16:17;27.00;;;17.80;;
3712;SDS011;1872;51.406;6.856;2023-10-08T10:18:44;29.03;;;17.20;;
3712;SDS011;1872;51.406;6.856;2023-10-08T10:23:39;27.03;;;14.60;;
3712;SDS011;1872;51.406;6.856;2023-10-08T10:31:32;22.23;;;13.03;;
3712;SDS011;1872;51.406;6.856;2023-10-08T10:34:05;19.73;;;11.57;;
3712;SDS011;1872;51.406;6.856;2023-10-08T10:36:33;22.67;;;11.30;;
3712;SDS011;1872;51.406;6.856;2023-10-08T10:38:59;15.40;;;9.07;;
3712;SDS011;1872;51.406;6.856;2023-10-08T10:41:27;13.67;;;9.03;;
3712;SDS011;1872;51.406;6.856;2023-10-08T10:43:53;19.37;;;9.40;;
3712;SDS011;1872;51.406;6.856;2023-10-08T10:46:18;12.33;;;8.90;;
3712;SDS011;1872;51.406;6.856;2023-10-08T10:48:56;13.30;;;8.13;;
3712;SDS011;1872;51.406;6.856;2023-10-08T10:51:42;13.40;;;8.10;;
3712;SDS011;1872;51.406;6.856;2023-10-08T10:54:08;13.63;;;8.60;;
3712;SDS011;1872;51.406;6.856;2023-10-08T10:56:35;17.83;;;9.30;;
3712;SDS011;1872;51.406;6.856;2023-10-08T10:59:08;16.97;;;9.70;;
3712;SDS011;1872;51.406;6.856;2023-10-08T11:01:52;12.80;;;8.30;;
3712;SDS011;1872;51.406;6.856;2023-10-08T11:04:30;10.97;;;8.00;;
3712;SDS011;1872;51.406;6.856;2023-10-08T11:06:58;11.33;;;8.70;;
3712;SDS011;1872;51.406;6.856;2023-10-08T11:09:26;11.43;;;8.10;;
3712;SDS011;1872;51.406;6.856;2023-10-08T11:12:03;12.87;;;9.77;;
3712;SDS011;1872;51.406;6.856;2023-10-08T11:14:38;10.27;;;7.93;;
3712;SDS011;1872;51.406;6.856;2023-10-08T11:17:13;11.60;;;6.93;;
3712;SDS011;1872;51.406;6.856;2023-10-08T11:19:41;7.33;;;6.63;;
3712;SDS011;1872;51.406;6.856;2023-10-08T11:22:13;10.10;;;6.03;;
3712;SDS011;1872;51.406;6.856;2023-10-08T11:24:44;7.50;;;5.83;;
3712;SDS011;1872;51.406;6.856;2023-10-08T11:27:18;6.50;;;5.00;;
3712;SDS011;1872;51.406;6.856;2023-10-08T11:29:53;6.47;;;5.27;;
3712;SDS011;1872;51.406;6.856;2023-10-08T11:32:25;11.23;;;5.50;;
3712;SDS011;1872;51.406;6.856;2023-10-08T11:34:58;7.80;;;4.73;;
3712;SDS011;1872;51.406;6.856;2023-10-08T11:37:28;8.87;;;4.53;;
3712;SDS011;1872;51.406;6.856;2023-10-08T11:39:55;6.27;;;4.33;;
3712;SDS011;1872;51.406;6.856;2023-10-08T11:42:23;7.57;;;4.30;;
3712;SDS011;1872;51.406;6.856;2023-10-08T11:44:58;4.73;;;4.07;;
3712;SDS011;1872;51.406;6.856;2023-10-08T11:47:27;5.90;;;4.77;;
3712;SDS011;1872;51.406;6.856;2023-10-08T11:50:00;7.60;;;4.50;;
3712;SDS011;1872;51.406;6.856;2023-10-08T11:52:39;9.97;;;4.70;;
3712;SDS011;1872;51.406;6.856;2023-10-08T11:55:06;7.27;;;4.10;;
3712;SDS011;1872;51.406;6.856;2023-10-08T11:57:48;8.33;;;4.17;;
3712;SDS011;1872;51.406;6.856;2023-10-08T12:00:15;5.97;;;4.20;;
3712;SDS011;1872;51.406;6.856;2023-10-08T12:02:47;8.33;;;4.10;;
3712;SDS011;1872;51.406;6.856;2023-10-08T12:05:14;9.83;;;6.07;;
3712;SDS011;1872;51.406;6.856;2023-10-08T12:07:48;7.53;;;4.30;;
3712;SDS011;1872;51.406;6.856;2023-10-08T12:10:18;7.60;;;4.30;;
3712;SDS011;1872;51.406;6.856;2023-10-08T12:12:53;8.00;;;5.23;;
3712;SDS011;1872;51.406;6.856;2023-10-08T12:15:25;11.40;;;5.47;;
3712;SDS011;1872;51.406;6.856;2023-10-08T12:18:03;12.13;;;5.83;;
3712;SDS011;1872;51.406;6.856;2023-10-08T12:21:05;7.47;;;5.57;;
3712;SDS011;1872;51.406;6.856;2023-10-08T12:23:40;9.53;;;6.43;;
3712;SDS011;1872;51.406;6.856;2023-10-08T12:26:08;12.30;;;6.83;;
3712;SDS011;1872;51.406;6.856;2023-10-08T12:28:34;11.37;;;6.70;;
3712;SDS011;1872;51.406;6.856;2023-10-08T12:31:03;9.83;;;6.77;;
3712;SDS011;1872;51.406;6.856;2023-10-08T12:33:29;9.73;;;5.73;;
3712;SDS011;1872;51.406;6.856;2023-10-08T12:35:56;9.60;;;5.93;;
3712;SDS011;1872;51.406;6.856;2023-10-08T12:38:23;10.63;;;7.23;;
3712;SDS011;1872;51.406;6.856;2023-10-08T12:40:52;13.37;;;6.00;;
3712;SDS011;1872;51.406;6.856;2023-10-08T12:43:19;10.83;;;5.83;;
3712;SDS011;1872;51.406;6.856;2023-10-08T12:45:52;9.77;;;6.63;;
3712;SDS011;1872;51.406;6.856;2023-10-08T12:48:23;10.70;;;6.43;;
3712;SDS011;1872;51.406;6.856;2023-10-08T12:50:51;8.67;;;6.43;;
3712;SDS011;1872;51.406;6.856;2023-10-08T12:53:23;11.03;;;6.53;;
3712;SDS011;1872;51.406;6.856;2023-10-08T12:55:58;7.87;;;5.70;;
3712;SDS011;1872;51.406;6.856;2023-10-08T12:58:30;10.73;;;6.57;;
3712;SDS011;1872;51.406;6.856;2023-10-08T13:00:59;10.27;;;5.97;;
3712;SDS011;1872;51.406;6.856;2023-10-08T13:03:28;8.90;;;6.07;;
3712;SDS011;1872;51.406;6.856;2023-10-08T13:05:58;8.90;;;6.43;;
3712;SDS011;1872;51.406;6.856;2023-10-08T13:08:31;12.23;;;7.30;;
3712;SDS011;1872;51.406;6.856;2023-10-08T13:10:59;12.90;;;7.00;;
3712;SDS011;1872;51.406;6.856;2023-10-08T13:13:28;8.37;;;6.13;;
3712;SDS011;1872;51.406;6.856;2023-10-08T13:15:55;7.90;;;6.03;;
3712;SDS011;1872;51.406;6.856;2023-10-08T13:18:24;9.50;;;7.10;;
3712;SDS011;1872;51.406;6.856;2023-10-08T13:20:51;11.70;;;5.63;;
3712;SDS011;1872;51.406;6.856;2023-10-08T13:23:17;10.10;;;5.77;;
3712;SDS011;1872;51.406;6.856;2023-10-08T13:25:48;11.40;;;7.13;;
3712;SDS011;1872;51.406;6.856;2023-10-08T13:28:21;7.13;;;5.73;;
3712;SDS011;1872;51.406;6.856;2023-10-08T13:30:47;8.90;;;6.60;;
3712;SDS011;1872;51.406;6.856;2023-10-08T13:33:22;7.43;;;5.40;;
3712;SDS011;1872;51.406;6.856;2023-10-08T13:35:48;9.93;;;7.47;;
3712;SDS011;1872;51.406;6.856;2023-10-08T13:38:15;8.60;;;6.13;;
3712;SDS011;1872;51.406;6.856;2023-10-08T13:40:47;8.53;;;6.37;;
3712;SDS011;1872;51.406;6.856;2023-10-08T13:43:29;9.03;;;5.60;;
3712;SDS011;1872;51.406;6.856;2023-10-08T13:46:08;9.60;;;5.77;;
3712;SDS011;1872;51.406;6.856;2023-10-08T13:48:37;10.67;;;6.37;;
3712;SDS011;1872;51.406;6.856;2023-10-08T13:51:03;11.13;;;5.83;;
3712;SDS011;1872;51.406;6.856;2023-10-08T13:53:33;10.27;;;6.27;;
3712;SDS011;1872;51.406;6.856;2023-10-08T13:56:01;12.00;;;6.80;;
3712;SDS011;1872;51.406;6.856;2023-10-08T13:58:29;8.70;;;5.93;;
3712;SDS011;1872;51.406;6.856;2023-10-08T14:00:56;9.67;;;6.37;;
3712;SDS011;1872;51.406;6.856;2023-10-08T14:03:25;11.53;;;6.33;;
3712;SDS011;1872;51.406;6.856;2023-10-08T14:05:56;11.27;;;5.97;;
3712;SDS011;1872;51.406;6.856;2023-10-08T14:08:26;8.70;;;5.60;;
3712;SDS011;1872;51.406;6.856;2023-10-08T14:10:54;9.00;;;7.43;;
3712;SDS011;1872;51.406;6.856;2023-10-08T14:13:25;9.20;;;6.97;;
3712;SDS011;1872;51.406;6.856;2023-10-08T14:15:52;7.23;;;5.97;;
3712;SDS011;1872;51.406;6.856;2023-10-08T14:18:21;10.47;;;6.60;;
3712;SDS011;1872;51.406;6.856;2023-10-08T14:20:53;9.70;;;6.23;;
3712;SDS011;1872;51.406;6.856;2023-10-08T14:23:22;8.20;;;5.60;;
3712;SDS011;1872;51.406;6.856;2023-10-08T14:25:50;9.83;;;6.00;;
3712;SDS011;1872;51.406;6.856;2023-10-08T14:28:17;8.40;;;5.83;;
3712;SDS011;1872;51.406;6.856;2023-10-08T14:31:05;9.60;;;5.97;;
3712;SDS011;1872;51.406;6.856;2023-10-08T14:33:31;8.97;;;5.53;;
3712;SDS011;1872;51.406;6.856;2023-10-08T14:36:06;8.63;;;6.07;;
3712;SDS011;1872;51.406;6.856;2023-10-08T14:38:52;9.30;;;6.20;;
3712;SDS011;1872;51.406;6.856;2023-10-08T14:41:36;8.87;;;5.60;;
3712;SDS011;1872;51.406;6.856;2023-10-08T14:44:20;7.20;;;5.40;;
3712;SDS011;1872;51.406;6.856;2023-10-08T14:46:45;12.63;;;6.60;;
3712;SDS011;1872;51.406;6.856;2023-10-08T14:49:11;10.97;;;8.17;;
3712;SDS011;1872;51.406;6.856;2023-10-08T14:51:40;10.17;;;6.60;;
3712;SDS011;1872;51.406;6.856;2023-10-08T14:54:06;8.17;;;6.33;;
3712;SDS011;1872;51.406;6.856;2023-10-08T14:56:33;8.90;;;7.07;;
3712;SDS011;1872;51.406;6.856;2023-10-08T14:59:00;8.10;;;6.83;;
3712;SDS011;1872;51.406;6.856;2023-10-08T15:01:27;8.60;;;5.33;;
3712;SDS011;1872;51.406;6.856;2023-10-08T15:03:59;11.60;;;5.93;;
3712;SDS011;1872;51.406;6.856;2023-10-08T15:06:36;10.13;;;5.90;;
3712;SDS011;1872;51.406;6.856;2023-10-08T15:09:03;7.40;;;5.57;;
3712;SDS011;1872;51.406;6.856;2023-10-08T15:11:30;7.70;;;5.90;;
3712;SDS011;1872;51.406;6.856;2023-10-08T15:13:56;8.50;;;5.30;;
3712;SDS011;1872;51.406;6.856;2023-10-08T15:16:22;8.50;;;6.13;;
3712;SDS011;1872;51.406;6.856;2023-10-08T15:18:49;11.00;;;6.17;;
3712;SDS011;1872;51.406;6.856;2023-10-08T15:21:16;9.63;;;6.20;;
3712;SDS011;1872;51.406;6.856;2023-10-08T15:23:42;9.67;;;6.20;;
3712;SDS011;1872;51.406;6.856;2023-10-08T15:26:09;9.57;;;6.50;;
3712;SDS011;1872;51.406;6.856;2023-10-08T15:28:37;10.03;;;6.87;;
3712;SDS011;1872;51.406;6.856;2023-10-08T15:31:03;7.57;;;5.40;;
3712;SDS011;1872;51.406;6.856;2023-10-08T15:33:28;8.47;;;6.27;;
3712;SDS011;1872;51.406;6.856;2023-10-08T15:35:54;8.20;;;5.87;;
3712;SDS011;1872;51.406;6.856;2023-10-08T15:38:21;11.33;;;5.87;;
3712;SDS011;1872;51.406;6.856;2023-10-08T15:40:47;9.10;;;6.27;;
3712;SDS011;1872;51.406;6.856;2023-10-08T15:43:14;11.77;;;6.30;;
3712;SDS011;1872;51.406;6.856;2023-10-08T15:45:40;9.07;;;6.20;;